sensor_id;sensor_type;location;lat;lon;timestamp;P1;durP1;ratioP1;P2;durP2;ratioP2
14392;SDS011;7281;42.678;23.372;2022-11-15T00:01:18;5.70;;;3.47;;
14392;SDS011;7281;42.678;23.372;2022-11-15T00:04:04;2.45;;;2.25;;
14392;SDS011;7281;42.678;23.372;2022-11-15T00:06:50;2.70;;;2.50;;
14392;SDS011;7281;42.678;23.372;2022-11-15T00:09:35;2.72;;;2.53;;
14392;SDS011;7281;42.678;23.372;2022-11-15T00:12:27;2.72;;;2.40;;
14392;SDS011;7281;42.678;23.372;2022-11-15T00:15:13;5.20;;;3.70;;
14392;SDS011;7281;42.678;23.372;2022-11-15T00:17:58;4.57;;;4.07;;
14392;SDS011;7281;42.678;23.372;2022-11-15T00:20:44;2.00;;;1.90;;
14392;SDS011;7281;42.678;23.372;2022-11-15T00:23:29;6.55;;;4.35;;
14392;SDS011;7281;42.678;23.372;2022-11-15T00:26:15;4.68;;;2.47;;
14392;SDS011;7281;42.678;23.372;2022-11-15T00:29:01;4.03;;;2.83;;
14392;SDS011;7281;42.678;23.372;2022-11-15T00:31:47;8.18;;;3.60;;
14392;SDS011;7281;42.678;23.372;2022-11-15T00:34:32;2.30;;;2.10;;
14392;SDS011;7281;42.678;23.372;2022-11-15T00:37:17;4.80;;;3.13;;
14392;SDS011;7281;42.678;23.372;2022-11-15T00:40:03;0.88;;;0.88;;
14392;SDS011;7281;42.678;23.372;2022-11-15T00:42:48;2.65;;;2.45;;
14392;SDS011;7281;42.678;23.372;2022-11-15T00:45:34;5.40;;;4.72;;
14392;SDS011;7281;42.678;23.372;2022-11-15T00:48:19;2.70;;;2.50;;
14392;SDS011;7281;42.678;23.372;2022-11-15T00:51:05;2.92;;;2.45;;
14392;SDS011;7281;42.678;23.372;2022-11-15T00:53:51;1.13;;;1.10;;
14392;SDS011;7281;42.678;23.372;2022-11-15T00:56:36;8.27;;;5.43;;
14392;SDS011;7281;42.678;23.372;2022-11-15T00:59:21;3.47;;;3.17;;
14392;SDS011;7281;42.678;23.372;2022-11-15T01:02:07;3.00;;;2.42;;
14392;SDS011;7281;42.678;23.372;2022-11-15T01:04:52;5.25;;;2.83;;
14392;SDS011;7281;42.678;23.372;2022-11-15T01:07:37;2.70;;;2.50;;
14392;SDS011;7281;42.678;23.372;2022-11-15T01:10:23;2.92;;;2.72;;
14392;SDS011;7281;42.678;23.372;2022-11-15T01:13:09;3.45;;;3.17;;
14392;SDS011;7281;42.678;23.372;2022-11-15T01:15:55;3.70;;;3.40;;
14392;SDS011;7281;42.678;23.372;2022-11-15T01:18:41;2.55;;;2.35;;
14392;SDS011;7281;42.678;23.372;2022-11-15T01:21:26;6.18;;;3.03;;
14392;SDS011;7281;42.678;23.372;2022-11-15T01:24:12;3.42;;;3.15;;
14392;SDS011;7281;42.678;23.372;2022-11-15T01:26:58;7.20;;;3.40;;
14392;SDS011;7281;42.678;23.372;2022-11-15T01:29:43;1.80;;;1.70;;
14392;SDS011;7281;42.678;23.372;2022-11-15T01:32:29;2.20;;;2.10;;
14392;SDS011;7281;42.678;23.372;2022-11-15T01:35:14;5.82;;;3.88;;
14392;SDS011;7281;42.678;23.372;2022-11-15T01:38:00;1.83;;;1.77;;
14392;SDS011;7281;42.678;23.372;2022-11-15T01:40:45;2.17;;;2.03;;
14392;SDS011;7281;42.678;23.372;2022-11-15T01:43:35;7.20;;;5.40;;
14392;SDS011;7281;42.678;23.372;2022-11-15T01:49:11;3.97;;;3.53;;
14392;SDS011;7281;42.678;23.372;2022-11-15T01:52:00;3.25;;;3.05;;
14392;SDS011;7281;42.678;23.372;2022-11-15T01:54:50;7.53;;;4.82;;
14392;SDS011;7281;42.678;23.372;2022-11-15T01:57:44;11.55;;;8.52;;
14392;SDS011;7281;42.678;23.372;2022-11-15T02:00:33;16.17;;;9.57;;
14392;SDS011;7281;42.678;23.372;2022-11-15T02:03:18;8.18;;;5.45;;
14392;SDS011;7281;42.678;23.372;2022-11-15T02:06:08;4.47;;;4.10;;
14392;SDS011;7281;42.678;23.372;2022-11-15T02:08:54;5.47;;;3.45;;
14392;SDS011;7281;42.678;23.372;2022-11-15T02:11:41;12.15;;;9.20;;
14392;SDS011;7281;42.678;23.372;2022-11-15T02:14:28;6.70;;;5.03;;
14392;SDS011;7281;42.678;23.372;2022-11-15T02:18:21;4.63;;;3.90;;
14392;SDS011;7281;42.678;23.372;2022-11-15T02:20:45;9.48;;;6.22;;
14392;SDS011;7281;42.678;23.372;2022-11-15T02:27:37;5.40;;;5.00;;
14392;SDS011;7281;42.678;23.372;2022-11-15T02:30:42;7.10;;;5.22;;
14392;SDS011;7281;42.678;23.372;2022-11-15T02:42:31;12.20;;;7.03;;
14392;SDS011;7281;42.678;23.372;2022-11-15T02:45:44;12.50;;;9.25;;
14392;SDS011;7281;42.678;23.372;2022-11-15T02:48:35;11.68;;;7.38;;
14392;SDS011;7281;42.678;23.372;2022-11-15T02:51:21;8.75;;;6.22;;
14392;SDS011;7281;42.678;23.372;2022-11-15T02:54:10;10.27;;;4.50;;
14392;SDS011;7281;42.678;23.372;2022-11-15T02:57:10;9.43;;;6.53;;
14392;SDS011;7281;42.678;23.372;2022-11-15T03:00:03;4.03;;;3.30;;
14392;SDS011;7281;42.678;23.372;2022-11-15T03:11:56;5.93;;;3.17;;
14392;SDS011;7281;42.678;23.372;2022-11-15T03:17:50;15.57;;;6.32;;
14392;SDS011;7281;42.678;23.372;2022-11-15T03:20:43;6.10;;;3.47;;
14392;SDS011;7281;42.678;23.372;2022-11-15T03:23:31;5.00;;;3.05;;
14392;SDS011;7281;42.678;23.372;2022-11-15T03:26:18;4.82;;;2.20;;
14392;SDS011;7281;42.678;23.372;2022-11-15T03:29:20;2.70;;;2.50;;
14392;SDS011;7281;42.678;23.372;2022-11-15T03:32:11;10.60;;;5.18;;
14392;SDS011;7281;42.678;23.372;2022-11-15T03:38:23;1.88;;;1.77;;
14392;SDS011;7281;42.678;23.372;2022-11-15T03:41:20;5.53;;;4.47;;
14392;SDS011;7281;42.678;23.372;2022-11-15T03:44:26;2.65;;;2.45;;
14392;SDS011;7281;42.678;23.372;2022-11-15T03:47:34;5.72;;;4.45;;
14392;SDS011;7281;42.678;23.372;2022-11-15T03:50:52;3.75;;;3.40;;
14392;SDS011;7281;42.678;23.372;2022-11-15T03:53:40;4.18;;;3.00;;
14392;SDS011;7281;42.678;23.372;2022-11-15T03:56:26;3.10;;;2.90;;
14392;SDS011;7281;42.678;23.372;2022-11-15T03:59:11;3.35;;;3.00;;
14392;SDS011;7281;42.678;23.372;2022-11-15T04:01:57;6.18;;;4.43;;
14392;SDS011;7281;42.678;23.372;2022-11-15T04:04:42;2.10;;;2.00;;
14392;SDS011;7281;42.678;23.372;2022-11-15T04:07:28;1.58;;;1.48;;
14392;SDS011;7281;42.678;23.372;2022-11-15T04:10:14;7.75;;;4.30;;
14392;SDS011;7281;42.678;23.372;2022-11-15T04:13:01;1.73;;;1.63;;
14392;SDS011;7281;42.678;23.372;2022-11-15T04:15:47;7.65;;;5.18;;
14392;SDS011;7281;42.678;23.372;2022-11-15T04:18:32;3.28;;;2.33;;
14392;SDS011;7281;42.678;23.372;2022-11-15T04:21:18;2.22;;;2.05;;
14392;SDS011;7281;42.678;23.372;2022-11-15T04:24:21;7.63;;;3.72;;
14392;SDS011;7281;42.678;23.372;2022-11-15T04:27:07;6.85;;;4.00;;
14392;SDS011;7281;42.678;23.372;2022-11-15T04:29:52;1.67;;;1.58;;
14392;SDS011;7281;42.678;23.372;2022-11-15T04:32:38;7.05;;;4.70;;
14392;SDS011;7281;42.678;23.372;2022-11-15T04:35:23;10.43;;;7.35;;
14392;SDS011;7281;42.678;23.372;2022-11-15T04:38:09;3.42;;;3.17;;
14392;SDS011;7281;42.678;23.372;2022-11-15T04:40:56;7.40;;;5.25;;
14392;SDS011;7281;42.678;23.372;2022-11-15T04:43:41;10.27;;;3.65;;
14392;SDS011;7281;42.678;23.372;2022-11-15T04:46:26;2.13;;;1.98;;
14392;SDS011;7281;42.678;23.372;2022-11-15T04:49:12;2.20;;;2.00;;
14392;SDS011;7281;42.678;23.372;2022-11-15T04:51:57;14.45;;;4.22;;
14392;SDS011;7281;42.678;23.372;2022-11-15T04:54:43;8.18;;;6.78;;
14392;SDS011;7281;42.678;23.372;2022-11-15T04:57:29;2.47;;;2.28;;
14392;SDS011;7281;42.678;23.372;2022-11-15T05:00:15;1.60;;;1.50;;
14392;SDS011;7281;42.678;23.372;2022-11-15T05:03:02;1.60;;;1.52;;
14392;SDS011;7281;42.678;23.372;2022-11-15T05:06:06;0.85;;;0.85;;
14392;SDS011;7281;42.678;23.372;2022-11-15T05:08:52;2.70;;;2.53;;
14392;SDS011;7281;42.678;23.372;2022-11-15T05:11:37;4.32;;;4.00;;
14392;SDS011;7281;42.678;23.372;2022-11-15T05:14:23;3.38;;;3.17;;
14392;SDS011;7281;42.678;23.372;2022-11-15T05:17:08;1.05;;;1.05;;
14392;SDS011;7281;42.678;23.372;2022-11-15T05:19:53;5.63;;;1.88;;
14392;SDS011;7281;42.678;23.372;2022-11-15T05:22:39;2.03;;;1.90;;
14392;SDS011;7281;42.678;23.372;2022-11-15T05:25:25;2.53;;;2.40;;
14392;SDS011;7281;42.678;23.372;2022-11-15T05:28:11;3.42;;;2.78;;
14392;SDS011;7281;42.678;23.372;2022-11-15T05:31:00;5.97;;;3.25;;
14392;SDS011;7281;42.678;23.372;2022-11-15T05:33:50;3.40;;;3.10;;
14392;SDS011;7281;42.678;23.372;2022-11-15T05:36:37;11.18;;;6.30;;
14392;SDS011;7281;42.678;23.372;2022-11-15T05:39:27;2.35;;;2.03;;
14392;SDS011;7281;42.678;23.372;2022-11-15T05:42:13;0.93;;;0.93;;
14392;SDS011;7281;42.678;23.372;2022-11-15T05:45:00;7.05;;;3.42;;
14392;SDS011;7281;42.678;23.372;2022-11-15T05:47:48;4.13;;;2.10;;
14392;SDS011;7281;42.678;23.372;2022-11-15T05:50:36;1.45;;;1.35;;
14392;SDS011;7281;42.678;23.372;2022-11-15T05:53:24;1.65;;;1.50;;
14392;SDS011;7281;42.678;23.372;2022-11-15T05:56:11;2.00;;;1.90;;
14392;SDS011;7281;42.678;23.372;2022-11-15T05:58:57;2.13;;;1.95;;
14392;SDS011;7281;42.678;23.372;2022-11-15T06:01:44;4.70;;;2.75;;
14392;SDS011;7281;42.678;23.372;2022-11-15T06:04:29;2.50;;;2.30;;
14392;SDS011;7281;42.678;23.372;2022-11-15T06:07:14;4.30;;;2.75;;
14392;SDS011;7281;42.678;23.372;2022-11-15T06:10:00;1.85;;;1.75;;
14392;SDS011;7281;42.678;23.372;2022-11-15T06:12:46;1.58;;;1.48;;
14392;SDS011;7281;42.678;23.372;2022-11-15T06:15:32;1.75;;;1.63;;
14392;SDS011;7281;42.678;23.372;2022-11-15T06:18:19;3.13;;;1.23;;
14392;SDS011;7281;42.678;23.372;2022-11-15T06:21:04;3.03;;;0.85;;
14392;SDS011;7281;42.678;23.372;2022-11-15T06:23:50;2.97;;;2.10;;
14392;SDS011;7281;42.678;23.372;2022-11-15T06:26:36;0.38;;;0.38;;
14392;SDS011;7281;42.678;23.372;2022-11-15T06:29:21;0.10;;;0.10;;
14392;SDS011;7281;42.678;23.372;2022-11-15T06:32:06;3.85;;;3.08;;
14392;SDS011;7281;42.678;23.372;2022-11-15T06:34:52;2.22;;;1.77;;
14392;SDS011;7281;42.678;23.372;2022-11-15T06:37:38;0.68;;;0.68;;
14392;SDS011;7281;42.678;23.372;2022-11-15T06:40:23;0.35;;;0.35;;
14392;SDS011;7281;42.678;23.372;2022-11-15T06:43:08;1.48;;;0.77;;
14392;SDS011;7281;42.678;23.372;2022-11-15T06:45:54;0.35;;;0.35;;
14392;SDS011;7281;42.678;23.372;2022-11-15T06:48:39;0.45;;;0.45;;
14392;SDS011;7281;42.678;23.372;2022-11-15T06:51:25;1.25;;;1.23;;
14392;SDS011;7281;42.678;23.372;2022-11-15T06:54:10;2.47;;;1.70;;
14392;SDS011;7281;42.678;23.372;2022-11-15T06:56:55;1.65;;;1.55;;
14392;SDS011;7281;42.678;23.372;2022-11-15T06:59:41;3.63;;;1.38;;
14392;SDS011;7281;42.678;23.372;2022-11-15T07:02:26;1.83;;;1.70;;
14392;SDS011;7281;42.678;23.372;2022-11-15T07:05:12;1.60;;;1.50;;
14392;SDS011;7281;42.678;23.372;2022-11-15T07:07:58;1.35;;;0.93;;
14392;SDS011;7281;42.678;23.372;2022-11-15T07:10:44;2.38;;;1.95;;
14392;SDS011;7281;42.678;23.372;2022-11-15T07:13:30;11.57;;;2.20;;
14392;SDS011;7281;42.678;23.372;2022-11-15T07:16:20;1.95;;;0.75;;
14392;SDS011;7281;42.678;23.372;2022-11-15T07:19:06;0.90;;;0.80;;
14392;SDS011;7281;42.678;23.372;2022-11-15T07:21:53;7.63;;;2.83;;
14392;SDS011;7281;42.678;23.372;2022-11-15T07:24:39;0.45;;;0.45;;
14392;SDS011;7281;42.678;23.372;2022-11-15T07:27:24;1.27;;;1.17;;
14392;SDS011;7281;42.678;23.372;2022-11-15T07:30:10;2.55;;;1.42;;
14392;SDS011;7281;42.678;23.372;2022-11-15T07:32:59;4.28;;;3.85;;
14392;SDS011;7281;42.678;23.372;2022-11-15T07:35:46;4.20;;;1.55;;
14392;SDS011;7281;42.678;23.372;2022-11-15T07:38:35;1.15;;;1.08;;
14392;SDS011;7281;42.678;23.372;2022-11-15T07:41:26;2.58;;;1.75;;
14392;SDS011;7281;42.678;23.372;2022-11-15T07:44:11;1.25;;;1.15;;
14392;SDS011;7281;42.678;23.372;2022-11-15T07:46:57;1.67;;;1.63;;
14392;SDS011;7281;42.678;23.372;2022-11-15T07:49:43;0.57;;;0.57;;
14392;SDS011;7281;42.678;23.372;2022-11-15T07:52:28;2.75;;;1.95;;
14392;SDS011;7281;42.678;23.372;2022-11-15T07:55:13;3.65;;;1.50;;
14392;SDS011;7281;42.678;23.372;2022-11-15T07:58:09;1.30;;;1.20;;
14392;SDS011;7281;42.678;23.372;2022-11-15T08:00:55;0.45;;;0.45;;
14392;SDS011;7281;42.678;23.372;2022-11-15T08:03:41;4.22;;;2.90;;
14392;SDS011;7281;42.678;23.372;2022-11-15T08:06:27;2.20;;;2.08;;
14392;SDS011;7281;42.678;23.372;2022-11-15T08:09:13;5.00;;;2.85;;
14392;SDS011;7281;42.678;23.372;2022-11-15T08:11:58;2.13;;;1.92;;
14392;SDS011;7281;42.678;23.372;2022-11-15T08:14:44;0.25;;;0.25;;
14392;SDS011;7281;42.678;23.372;2022-11-15T08:17:30;2.85;;;2.58;;
14392;SDS011;7281;42.678;23.372;2022-11-15T08:20:18;0.85;;;0.85;;
14392;SDS011;7281;42.678;23.372;2022-11-15T08:23:04;2.90;;;2.20;;
14392;SDS011;7281;42.678;23.372;2022-11-15T08:25:51;0.88;;;0.88;;
14392;SDS011;7281;42.678;23.372;2022-11-15T08:28:36;1.10;;;1.10;;
14392;SDS011;7281;42.678;23.372;2022-11-15T08:31:22;0.38;;;0.38;;
14392;SDS011;7281;42.678;23.372;2022-11-15T08:34:07;3.88;;;1.90;;
14392;SDS011;7281;42.678;23.372;2022-11-15T08:36:53;2.17;;;2.08;;
14392;SDS011;7281;42.678;23.372;2022-11-15T08:39:38;0.20;;;0.20;;
14392;SDS011;7281;42.678;23.372;2022-11-15T08:42:24;3.03;;;2.10;;
14392;SDS011;7281;42.678;23.372;2022-11-15T08:45:09;2.45;;;2.25;;
14392;SDS011;7281;42.678;23.372;2022-11-15T08:47:56;1.42;;;1.38;;
14392;SDS011;7281;42.678;23.372;2022-11-15T08:50:42;3.80;;;3.03;;
14392;SDS011;7281;42.678;23.372;2022-11-15T08:53:28;1.60;;;1.52;;
14392;SDS011;7281;42.678;23.372;2022-11-15T08:56:15;1.27;;;1.00;;
14392;SDS011;7281;42.678;23.372;2022-11-15T08:59:00;4.72;;;2.65;;
14392;SDS011;7281;42.678;23.372;2022-11-15T09:01:45;3.13;;;2.92;;
14392;SDS011;7281;42.678;23.372;2022-11-15T09:04:31;1.17;;;1.10;;
14392;SDS011;7281;42.678;23.372;2022-11-15T09:07:17;5.85;;;1.85;;
14392;SDS011;7281;42.678;23.372;2022-11-15T09:10:03;6.65;;;2.13;;
14392;SDS011;7281;42.678;23.372;2022-11-15T09:12:49;5.18;;;2.90;;
14392;SDS011;7281;42.678;23.372;2022-11-15T09:15:34;0.80;;;0.70;;
14392;SDS011;7281;42.678;23.372;2022-11-15T09:18:20;2.15;;;2.00;;
14392;SDS011;7281;42.678;23.372;2022-11-15T09:21:07;3.63;;;1.98;;
14392;SDS011;7281;42.678;23.372;2022-11-15T09:23:55;5.65;;;3.65;;
14392;SDS011;7281;42.678;23.372;2022-11-15T09:26:41;9.32;;;3.70;;
14392;SDS011;7281;42.678;23.372;2022-11-15T09:29:27;6.90;;;2.72;;
14392;SDS011;7281;42.678;23.372;2022-11-15T09:32:27;2.55;;;2.35;;
14392;SDS011;7281;42.678;23.372;2022-11-15T09:35:20;1.75;;;1.48;;
14392;SDS011;7281;42.678;23.372;2022-11-15T09:38:05;4.07;;;2.03;;
14392;SDS011;7281;42.678;23.372;2022-11-15T09:40:51;5.95;;;3.47;;
14392;SDS011;7281;42.678;23.372;2022-11-15T09:50:18;1.50;;;1.40;;
14392;SDS011;7281;42.678;23.372;2022-11-15T09:52:57;2.03;;;1.85;;
14392;SDS011;7281;42.678;23.372;2022-11-15T09:55:27;2.83;;;2.35;;
14392;SDS011;7281;42.678;23.372;2022-11-15T09:58:10;5.10;;;3.47;;
14392;SDS011;7281;42.678;23.372;2022-11-15T10:00:50;0.80;;;0.80;;
14392;SDS011;7281;42.678;23.372;2022-11-15T10:03:29;6.90;;;3.77;;
14392;SDS011;7281;42.678;23.372;2022-11-15T10:06:01;3.03;;;2.83;;
14392;SDS011;7281;42.678;23.372;2022-11-15T10:11:08;5.33;;;4.83;;
14392;SDS011;7281;42.678;23.372;2022-11-15T10:13:58;3.00;;;2.80;;
14392;SDS011;7281;42.678;23.372;2022-11-15T10:21:45;1.43;;;1.33;;
14392;SDS011;7281;42.678;23.372;2022-11-15T10:24:34;4.38;;;3.95;;
14392;SDS011;7281;42.678;23.372;2022-11-15T10:27:07;5.50;;;2.53;;
14392;SDS011;7281;42.678;23.372;2022-11-15T10:29:42;5.37;;;2.97;;
14392;SDS011;7281;42.678;23.372;2022-11-15T10:32:14;4.77;;;3.40;;
14392;SDS011;7281;42.678;23.372;2022-11-15T10:34:43;7.67;;;4.50;;
14392;SDS011;7281;42.678;23.372;2022-11-15T10:37:10;5.43;;;2.90;;
14392;SDS011;7281;42.678;23.372;2022-11-15T10:39:38;5.17;;;3.10;;
14392;SDS011;7281;42.678;23.372;2022-11-15T10:42:26;39.60;;;4.77;;
14392;SDS011;7281;42.678;23.372;2022-11-15T10:44:55;5.23;;;1.77;;
14392;SDS011;7281;42.678;23.372;2022-11-15T10:47:23;5.97;;;4.30;;
14392;SDS011;7281;42.678;23.372;2022-11-15T10:50:06;3.17;;;2.97;;
14392;SDS011;7281;42.678;23.372;2022-11-15T10:52:52;4.13;;;3.77;;
14392;SDS011;7281;42.678;23.372;2022-11-15T10:55:21;7.83;;;5.23;;
14392;SDS011;7281;42.678;23.372;2022-11-15T10:58:39;6.00;;;3.83;;
14392;SDS011;7281;42.678;23.372;2022-11-15T11:00:54;5.20;;;4.07;;
14392;SDS011;7281;42.678;23.372;2022-11-15T11:03:27;3.47;;;3.23;;
14392;SDS011;7281;42.678;23.372;2022-11-15T11:09:00;1.83;;;1.73;;
14392;SDS011;7281;42.678;23.372;2022-11-15T11:12:02;3.00;;;2.80;;
14392;SDS011;7281;42.678;23.372;2022-11-15T11:14:23;5.20;;;3.50;;
14392;SDS011;7281;42.678;23.372;2022-11-15T11:16:52;9.23;;;4.57;;
14392;SDS011;7281;42.678;23.372;2022-11-15T11:19:31;3.13;;;2.83;;
14392;SDS011;7281;42.678;23.372;2022-11-15T11:22:10;2.37;;;2.17;;
14392;SDS011;7281;42.678;23.372;2022-11-15T11:25:08;3.87;;;2.67;;
14392;SDS011;7281;42.678;23.372;2022-11-15T11:28:00;2.77;;;2.60;;
14392;SDS011;7281;42.678;23.372;2022-11-15T11:33:40;5.17;;;4.07;;
14392;SDS011;7281;42.678;23.372;2022-11-15T11:36:27;2.83;;;2.63;;
14392;SDS011;7281;42.678;23.372;2022-11-15T11:45:05;9.27;;;4.37;;
14392;SDS011;7281;42.678;23.372;2022-11-15T11:47:39;1.67;;;1.57;;
14392;SDS011;7281;42.678;23.372;2022-11-15T11:50:20;1.37;;;1.20;;
14392;SDS011;7281;42.678;23.372;2022-11-15T11:55:34;2.67;;;2.57;;
14392;SDS011;7281;42.678;23.372;2022-11-15T12:00:59;6.37;;;3.17;;
14392;SDS011;7281;42.678;23.372;2022-11-15T12:03:40;4.07;;;3.37;;
14392;SDS011;7281;42.678;23.372;2022-11-15T12:06:23;5.77;;;3.03;;
14392;SDS011;7281;42.678;23.372;2022-11-15T12:09:00;1.63;;;1.50;;
14392;SDS011;7281;42.678;23.372;2022-11-15T12:11:43;3.13;;;2.93;;
14392;SDS011;7281;42.678;23.372;2022-11-15T12:14:41;3.47;;;2.37;;
14392;SDS011;7281;42.678;23.372;2022-11-15T12:17:10;3.20;;;2.83;;
14392;SDS011;7281;42.678;23.372;2022-11-15T12:19:39;7.57;;;4.23;;
14392;SDS011;7281;42.678;23.372;2022-11-15T12:22:10;4.47;;;3.03;;
14392;SDS011;7281;42.678;23.372;2022-11-15T12:24:46;3.50;;;3.20;;
14392;SDS011;7281;42.678;23.372;2022-11-15T12:27:46;4.13;;;3.73;;
14392;SDS011;7281;42.678;23.372;2022-11-15T12:30:24;5.23;;;3.03;;
14392;SDS011;7281;42.678;23.372;2022-11-15T12:33:15;4.50;;;4.03;;
14392;SDS011;7281;42.678;23.372;2022-11-15T12:36:50;5.53;;;3.43;;
14392;SDS011;7281;42.678;23.372;2022-11-15T12:39:11;4.27;;;3.47;;
14392;SDS011;7281;42.678;23.372;2022-11-15T12:45:22;5.43;;;3.37;;
14392;SDS011;7281;42.678;23.372;2022-11-15T12:47:24;4.10;;;2.97;;
14392;SDS011;7281;42.678;23.372;2022-11-15T12:49:53;14.43;;;4.97;;
14392;SDS011;7281;42.678;23.372;2022-11-15T12:52:20;3.50;;;2.87;;
14392;SDS011;7281;42.678;23.372;2022-11-15T12:54:51;5.33;;;3.90;;
14392;SDS011;7281;42.678;23.372;2022-11-15T12:57:27;2.17;;;1.97;;
14392;SDS011;7281;42.678;23.372;2022-11-15T13:00:00;4.23;;;3.37;;
14392;SDS011;7281;42.678;23.372;2022-11-15T13:02:42;4.93;;;3.60;;
14392;SDS011;7281;42.678;23.372;2022-11-15T13:20:21;3.00;;;2.80;;
14392;SDS011;7281;42.678;23.372;2022-11-15T13:23:09;4.70;;;2.60;;
14392;SDS011;7281;42.678;23.372;2022-11-15T13:28:21;5.63;;;3.50;;
14392;SDS011;7281;42.678;23.372;2022-11-15T13:39:48;5.27;;;4.77;;
14392;SDS011;7281;42.678;23.372;2022-11-15T13:42:16;7.50;;;4.13;;
14392;SDS011;7281;42.678;23.372;2022-11-15T13:44:54;10.80;;;4.83;;
14392;SDS011;7281;42.678;23.372;2022-11-15T13:47:26;1.83;;;1.73;;
14392;SDS011;7281;42.678;23.372;2022-11-15T13:49:58;5.27;;;4.83;;
14392;SDS011;7281;42.678;23.372;2022-11-15T13:52:31;4.83;;;4.40;;
14392;SDS011;7281;42.678;23.372;2022-11-15T14:02:53;8.43;;;5.13;;
14392;SDS011;7281;42.678;23.372;2022-11-15T14:05:22;8.07;;;4.70;;
14392;SDS011;7281;42.678;23.372;2022-11-15T14:07:58;2.53;;;2.33;;
14392;SDS011;7281;42.678;23.372;2022-11-15T14:10:33;10.53;;;6.90;;
14392;SDS011;7281;42.678;23.372;2022-11-15T14:13:03;6.33;;;5.53;;
14392;SDS011;7281;42.678;23.372;2022-11-15T14:15:37;4.60;;;3.83;;
14392;SDS011;7281;42.678;23.372;2022-11-15T14:18:05;4.03;;;3.77;;
14392;SDS011;7281;42.678;23.372;2022-11-15T14:20:37;7.40;;;5.07;;
14392;SDS011;7281;42.678;23.372;2022-11-15T14:23:18;3.07;;;2.87;;
14392;SDS011;7281;42.678;23.372;2022-11-15T14:25:53;5.73;;;3.93;;
14392;SDS011;7281;42.678;23.372;2022-11-15T14:30:52;4.87;;;4.47;;
14392;SDS011;7281;42.678;23.372;2022-11-15T14:35:55;2.83;;;2.63;;
14392;SDS011;7281;42.678;23.372;2022-11-15T14:38:24;3.93;;;3.57;;
14392;SDS011;7281;42.678;23.372;2022-11-15T14:40:51;2.70;;;2.23;;
14392;SDS011;7281;42.678;23.372;2022-11-15T14:43:18;2.30;;;2.20;;
14392;SDS011;7281;42.678;23.372;2022-11-15T14:45:45;4.80;;;2.63;;
14392;SDS011;7281;42.678;23.372;2022-11-15T14:48:12;6.00;;;5.23;;
14392;SDS011;7281;42.678;23.372;2022-11-15T14:50:38;3.93;;;3.33;;
14392;SDS011;7281;42.678;23.372;2022-11-15T14:53:05;4.93;;;3.87;;
14392;SDS011;7281;42.678;23.372;2022-11-15T14:55:35;6.07;;;5.37;;
14392;SDS011;7281;42.678;23.372;2022-11-15T14:58:04;4.17;;;2.73;;
14392;SDS011;7281;42.678;23.372;2022-11-15T15:00:38;2.57;;;2.17;;
14392;SDS011;7281;42.678;23.372;2022-11-15T15:03:07;2.83;;;2.63;;
14392;SDS011;7281;42.678;23.372;2022-11-15T15:05:36;6.00;;;5.07;;
14392;SDS011;7281;42.678;23.372;2022-11-15T15:08:05;2.73;;;2.20;;
14392;SDS011;7281;42.678;23.372;2022-11-15T15:10:33;5.20;;;3.20;;
14392;SDS011;7281;42.678;23.372;2022-11-15T15:13:19;2.37;;;2.27;;
14392;SDS011;7281;42.678;23.372;2022-11-15T15:15:48;5.20;;;3.97;;
14392;SDS011;7281;42.678;23.372;2022-11-15T15:18:17;4.43;;;3.57;;
14392;SDS011;7281;42.678;23.372;2022-11-15T15:20:47;5.73;;;4.70;;
14392;SDS011;7281;42.678;23.372;2022-11-15T15:23:20;2.43;;;2.27;;
14392;SDS011;7281;42.678;23.372;2022-11-15T15:25:49;6.40;;;4.00;;
14392;SDS011;7281;42.678;23.372;2022-11-15T15:28:16;1.03;;;1.03;;
14392;SDS011;7281;42.678;23.372;2022-11-15T15:30:43;4.73;;;2.17;;
14392;SDS011;7281;42.678;23.372;2022-11-15T15:33:10;7.83;;;5.40;;
14392;SDS011;7281;42.678;23.372;2022-11-15T15:35:37;4.53;;;3.43;;
14392;SDS011;7281;42.678;23.372;2022-11-15T15:38:03;4.03;;;3.63;;
14392;SDS011;7281;42.678;23.372;2022-11-15T15:40:31;6.93;;;4.33;;
14392;SDS011;7281;42.678;23.372;2022-11-15T15:42:59;3.63;;;3.33;;
14392;SDS011;7281;42.678;23.372;2022-11-15T15:45:26;16.10;;;5.30;;
14392;SDS011;7281;42.678;23.372;2022-11-15T15:47:54;8.40;;;5.53;;
14392;SDS011;7281;42.678;23.372;2022-11-15T15:50:23;4.60;;;3.63;;
14392;SDS011;7281;42.678;23.372;2022-11-15T15:52:50;5.93;;;5.40;;
14392;SDS011;7281;42.678;23.372;2022-11-15T15:55:19;6.37;;;5.77;;
14392;SDS011;7281;42.678;23.372;2022-11-15T15:57:46;8.73;;;5.23;;
14392;SDS011;7281;42.678;23.372;2022-11-15T16:00:13;14.17;;;6.87;;
14392;SDS011;7281;42.678;23.372;2022-11-15T16:02:41;4.63;;;4.23;;
14392;SDS011;7281;42.678;23.372;2022-11-15T16:05:08;7.00;;;4.50;;
14392;SDS011;7281;42.678;23.372;2022-11-15T16:07:36;8.50;;;6.20;;
14392;SDS011;7281;42.678;23.372;2022-11-15T16:12:54;19.07;;;11.50;;
14392;SDS011;7281;42.678;23.372;2022-11-15T16:15:22;4.87;;;4.47;;
14392;SDS011;7281;42.678;23.372;2022-11-15T16:17:52;7.10;;;5.27;;
14392;SDS011;7281;42.678;23.372;2022-11-15T16:20:22;6.20;;;5.67;;
14392;SDS011;7281;42.678;23.372;2022-11-15T16:23:12;10.20;;;9.07;;
14392;SDS011;7281;42.678;23.372;2022-11-15T16:25:51;8.97;;;8.23;;
14392;SDS011;7281;42.678;23.372;2022-11-15T16:28:28;9.73;;;8.90;;
14392;SDS011;7281;42.678;23.372;2022-11-15T16:33:28;9.80;;;8.83;;
14392;SDS011;7281;42.678;23.372;2022-11-15T16:35:56;15.53;;;8.83;;
14392;SDS011;7281;42.678;23.372;2022-11-15T16:38:23;11.83;;;10.70;;
14392;SDS011;7281;42.678;23.372;2022-11-15T16:40:50;18.63;;;15.70;;
14392;SDS011;7281;42.678;23.372;2022-11-15T16:43:17;13.23;;;10.07;;
14392;SDS011;7281;42.678;23.372;2022-11-15T16:45:44;6.27;;;5.63;;
14392;SDS011;7281;42.678;23.372;2022-11-15T16:48:24;8.50;;;7.67;;
14392;SDS011;7281;42.678;23.372;2022-11-15T16:50:56;5.63;;;4.43;;
14392;SDS011;7281;42.678;23.372;2022-11-15T16:53:25;7.50;;;6.17;;
14392;SDS011;7281;42.678;23.372;2022-11-15T16:55:53;18.37;;;9.53;;
14392;SDS011;7281;42.678;23.372;2022-11-15T16:58:21;12.20;;;8.60;;
14392;SDS011;7281;42.678;23.372;2022-11-15T17:00:51;8.00;;;7.15;;
14392;SDS011;7281;42.678;23.372;2022-11-15T17:03:23;13.27;;;11.05;;
14392;SDS011;7281;42.678;23.372;2022-11-15T17:05:50;6.00;;;5.50;;
14392;SDS011;7281;42.678;23.372;2022-11-15T17:08:17;11.02;;;7.05;;
14392;SDS011;7281;42.678;23.372;2022-11-15T17:10:47;13.60;;;7.65;;
14392;SDS011;7281;42.678;23.372;2022-11-15T17:13:14;8.45;;;7.50;;
14392;SDS011;7281;42.678;23.372;2022-11-15T17:15:44;6.30;;;5.73;;
14392;SDS011;7281;42.678;23.372;2022-11-15T17:18:11;6.78;;;6.20;;
14392;SDS011;7281;42.678;23.372;2022-11-15T17:20:41;8.73;;;7.27;;
14392;SDS011;7281;42.678;23.372;2022-11-15T17:23:12;6.10;;;3.80;;
14392;SDS011;7281;42.678;23.372;2022-11-15T17:25:40;5.57;;;4.43;;
14392;SDS011;7281;42.678;23.372;2022-11-15T17:28:07;3.88;;;3.40;;
14392;SDS011;7281;42.678;23.372;2022-11-15T17:30:35;27.90;;;7.53;;
14392;SDS011;7281;42.678;23.372;2022-11-15T17:33:02;6.07;;;5.40;;
14392;SDS011;7281;42.678;23.372;2022-11-15T17:35:29;8.37;;;7.33;;
14392;SDS011;7281;42.678;23.372;2022-11-15T17:37:55;4.22;;;3.53;;
14392;SDS011;7281;42.678;23.372;2022-11-15T17:40:22;7.33;;;6.17;;
14392;SDS011;7281;42.678;23.372;2022-11-15T17:42:49;12.50;;;7.23;;
14392;SDS011;7281;42.678;23.372;2022-11-15T17:45:16;6.73;;;6.10;;
14392;SDS011;7281;42.678;23.372;2022-11-15T17:47:43;10.23;;;8.83;;
14392;SDS011;7281;42.678;23.372;2022-11-15T17:50:10;9.47;;;8.30;;
14392;SDS011;7281;42.678;23.372;2022-11-15T17:52:37;10.17;;;8.03;;
14392;SDS011;7281;42.678;23.372;2022-11-15T17:55:04;8.07;;;6.33;;
14392;SDS011;7281;42.678;23.372;2022-11-15T17:57:31;3.13;;;2.83;;
14392;SDS011;7281;42.678;23.372;2022-11-15T17:59:58;8.03;;;7.23;;